createdAt,value
2018-08-30T00:01:53.881Z,9.30
2018-08-30T00:04:22.187Z,9.30
2018-08-30T00:06:50.498Z,8.63
2018-08-30T00:09:18.794Z,8.63
2018-08-30T00:11:47.053Z,7.90
2018-08-30T00:14:15.338Z,8.60
2018-08-30T00:16:43.634Z,9.47
2018-08-30T00:19:11.965Z,9.27
2018-08-30T00:21:40.249Z,7.93
2018-08-30T00:24:08.573Z,8.63
2018-08-30T00:26:36.833Z,7.87
2018-08-30T00:29:05.153Z,8.57
2018-08-30T00:31:33.415Z,9.60
2018-08-30T00:34:01.708Z,9.20
2018-08-30T00:36:29.962Z,8.20
2018-08-30T00:38:58.262Z,8.20
2018-08-30T00:41:26.591Z,9.60
2018-08-30T00:43:54.969Z,8.17
2018-08-30T00:46:23.256Z,9.00
2018-08-30T00:48:51.542Z,8.87
2018-08-30T00:51:19.809Z,8.93
2018-08-30T00:53:48.077Z,9.17
2018-08-30T00:56:16.329Z,8.60
2018-08-30T00:58:44.821Z,9.50
2018-08-30T01:01:13.181Z,9.63
2018-08-30T01:03:41.429Z,9.50
2018-08-30T01:06:09.713Z,9.27
2018-08-30T01:08:37.972Z,9.17
2018-08-30T01:11:06.652Z,8.70
2018-08-30T01:13:34.897Z,9.20
2018-08-30T01:16:03.185Z,8.67
2018-08-30T01:18:31.434Z,8.60
2018-08-30T01:20:59.722Z,8.63
2018-08-30T01:23:27.997Z,8.17
2018-08-30T01:25:56.379Z,8.63
2018-08-30T01:28:25.653Z,9.50
2018-08-30T01:30:53.933Z,8.73
2018-08-30T01:33:22.416Z,7.40
2018-08-30T01:35:50.693Z,8.30
2018-08-30T01:38:18.971Z,8.57
2018-08-30T01:40:47.240Z,9.37
2018-08-30T01:43:15.506Z,8.10
2018-08-30T01:45:43.808Z,9.50
2018-08-30T01:48:12.111Z,10.40
2018-08-30T01:50:40.423Z,9.93
2018-08-30T01:53:08.693Z,11.70
2018-08-30T01:55:37.137Z,11.93
2018-08-30T01:58:06.517Z,12.00
2018-08-30T02:00:34.793Z,12.53
2018-08-30T02:03:05.540Z,14.27
2018-08-30T02:05:34.804Z,13.17
2018-08-30T02:08:03.590Z,12.97
2018-08-30T02:10:31.840Z,13.67
2018-08-30T02:13:00.121Z,14.03
2018-08-30T02:15:28.404Z,12.97
2018-08-30T02:17:56.713Z,12.67
2018-08-30T02:20:24.981Z,13.30
2018-08-30T02:22:53.270Z,12.10
2018-08-30T02:25:21.533Z,14.93
2018-08-30T02:27:49.852Z,13.20
2018-08-30T02:30:18.137Z,12.57
2018-08-30T02:32:46.509Z,12.70
2018-08-30T02:35:14.762Z,12.40
2018-08-30T02:37:43.138Z,13.07
2018-08-30T02:40:12.509Z,13.70
2018-08-30T02:42:40.813Z,13.70
2018-08-30T02:45:09.099Z,14.13
2018-08-30T02:47:38.364Z,13.47
2018-08-30T02:50:07.797Z,14.53
2018-08-30T02:52:36.037Z,14.20
2018-08-30T02:55:04.457Z,13.20
2018-08-30T02:57:32.717Z,14.03
2018-08-30T03:00:01.018Z,15.03
2018-08-30T03:02:30.075Z,13.10
2018-08-30T03:04:58.390Z,13.53
2018-08-30T03:07:26.725Z,15.77
2018-08-30T03:09:55.040Z,14.70
2018-08-30T03:12:23.325Z,13.87
2018-08-30T03:15:03.092Z,15.60
2018-08-30T03:17:31.411Z,14.43
2018-08-30T03:19:59.698Z,14.30
2018-08-30T03:22:28.061Z,14.80
2018-08-30T03:24:56.469Z,14.07
2018-08-30T03:27:24.807Z,14.03
2018-08-30T03:29:53.099Z,14.37
2018-08-30T03:32:21.369Z,13.83
2018-08-30T03:34:49.667Z,14.00
2018-08-30T03:37:17.939Z,15.07
2018-08-30T03:39:46.472Z,14.20
2018-08-30T03:42:14.737Z,13.47
2018-08-30T03:44:43.025Z,14.53
2018-08-30T03:47:11.346Z,13.57
2018-08-30T03:49:40.253Z,13.63
2018-08-30T03:52:08.669Z,15.57
2018-08-30T03:54:36.977Z,13.73
2018-08-30T03:57:05.937Z,14.37
2018-08-30T03:59:34.200Z,14.43
2018-08-30T04:02:03.517Z,15.83
2018-08-30T04:04:31.821Z,15.20
2018-08-30T04:07:00.277Z,14.80
2018-08-30T04:09:28.625Z,16.10
2018-08-30T04:11:57.925Z,15.10
2018-08-30T04:14:26.217Z,16.07
2018-08-30T04:16:54.526Z,16.77
2018-08-30T04:19:22.809Z,16.70
2018-08-30T04:21:51.129Z,16.83
2018-08-30T04:24:19.467Z,18.07
2018-08-30T04:26:47.777Z,15.67
2018-08-30T04:29:16.071Z,19.70
2018-08-30T04:31:44.377Z,18.20
2018-08-30T04:34:13.714Z,19.57
2018-08-30T04:36:42.180Z,19.47
2018-08-30T04:39:10.473Z,18.33
2018-08-30T04:41:38.757Z,17.37
2018-08-30T04:44:07.065Z,18.97
2018-08-30T04:46:35.341Z,13.80
2018-08-30T04:49:03.965Z,14.90
2018-08-30T04:51:32.234Z,15.77
2018-08-30T04:54:00.534Z,14.33
2018-08-30T04:56:28.891Z,13.87
2018-08-30T04:58:57.345Z,14.17
2018-08-30T05:01:25.632Z,15.33
2018-08-30T05:03:53.933Z,13.57
2018-08-30T05:06:22.217Z,12.03
2018-08-30T05:08:50.506Z,13.37
2018-08-30T05:11:18.785Z,14.17
2018-08-30T05:13:48.089Z,12.90
2018-08-30T05:16:18.478Z,13.40
2018-08-30T05:18:46.873Z,12.80
2018-08-30T05:21:15.139Z,11.30
2018-08-30T05:23:43.445Z,12.57
2018-08-30T05:26:11.797Z,13.03
2018-08-30T05:28:40.167Z,13.60
2018-08-30T05:31:08.446Z,12.37
2018-08-30T05:33:36.740Z,12.47
2018-08-30T05:36:05.034Z,12.30
2018-08-30T05:38:33.304Z,13.87
2018-08-30T05:41:01.621Z,13.00
2018-08-30T05:43:29.965Z,13.13
2018-08-30T05:45:58.340Z,11.40
2018-08-30T05:48:26.689Z,12.03
2018-08-30T05:50:55.007Z,12.33
2018-08-30T05:53:23.273Z,11.80
2018-08-30T05:55:51.609Z,12.20
2018-08-30T05:58:19.884Z,11.90
2018-08-30T06:00:48.190Z,11.20
2018-08-30T06:03:16.473Z,11.83
2018-08-30T06:05:44.839Z,11.80
2018-08-30T06:08:13.167Z,12.50
2018-08-30T06:10:41.485Z,12.80
2018-08-30T06:13:09.801Z,14.13
2018-08-30T06:15:38.065Z,12.10
2018-08-30T06:18:06.360Z,13.37
2018-08-30T06:20:34.739Z,13.03
2018-08-30T06:23:03.000Z,12.13
2018-08-30T06:25:31.289Z,12.30
2018-08-30T06:27:59.633Z,11.83
2018-08-30T06:30:27.917Z,13.90
2018-08-30T06:32:56.285Z,13.67
2018-08-30T06:35:24.517Z,12.87
2018-08-30T06:37:52.871Z,13.50
2018-08-30T06:40:21.153Z,13.30
2018-08-30T06:42:49.456Z,12.77
2018-08-30T06:45:18.950Z,10.73
2018-08-30T06:47:47.205Z,11.67
2018-08-30T06:50:15.525Z,11.40
2018-08-30T06:52:44.081Z,11.77
2018-08-30T06:55:12.353Z,10.20
2018-08-30T06:57:40.829Z,11.13
2018-08-30T07:00:09.098Z,11.73
2018-08-30T07:02:37.417Z,11.37
2018-08-30T07:05:05.785Z,11.20
2018-08-30T07:07:35.133Z,9.87
2018-08-30T07:10:03.437Z,11.57
2018-08-30T07:12:31.785Z,10.77
2018-08-30T07:15:00.135Z,9.90
2018-08-30T07:17:28.409Z,12.80
2018-08-30T07:19:57.033Z,14.47
2018-08-30T07:22:25.319Z,11.97
2018-08-30T07:24:53.665Z,11.23
2018-08-30T07:27:23.977Z,12.67
2018-08-30T07:29:52.322Z,11.93
2018-08-30T07:32:20.597Z,11.20
2018-08-30T07:34:49.013Z,13.03
2018-08-30T07:37:17.193Z,12.37
2018-08-30T07:39:45.489Z,12.77
2018-08-30T07:42:13.769Z,11.67
2018-08-30T07:44:42.235Z,12.70
2018-08-30T07:47:10.494Z,12.07
2018-08-30T07:49:38.794Z,11.73
2018-08-30T07:52:07.093Z,9.87
2018-08-30T07:54:35.437Z,11.20
2018-08-30T07:57:03.713Z,11.00
2018-08-30T07:59:32.012Z,10.10
2018-08-30T08:02:00.290Z,11.23
2018-08-30T08:04:28.590Z,11.33
2018-08-30T08:06:56.896Z,10.90
2018-08-30T08:09:25.288Z,10.67
2018-08-30T08:11:53.702Z,11.03
2018-08-30T08:14:22.052Z,10.23
2018-08-30T08:16:50.337Z,10.67
2018-08-30T08:19:18.713Z,12.20
2018-08-30T08:21:46.985Z,11.60
2018-08-30T08:24:15.292Z,12.53
2018-08-30T08:26:43.601Z,11.73
2018-08-30T08:29:11.921Z,11.17
2018-08-30T08:31:40.257Z,13.00
2018-08-30T08:34:08.573Z,11.30
2018-08-30T08:36:36.933Z,12.20
2018-08-30T08:39:06.934Z,12.00
2018-08-30T08:41:35.479Z,11.77
2018-08-30T08:44:03.772Z,11.07
2018-08-30T08:46:32.074Z,10.60
2018-08-30T08:49:00.353Z,11.40
2018-08-30T08:51:28.657Z,11.00
2018-08-30T08:53:56.958Z,11.80
2018-08-30T08:56:25.309Z,12.87
2018-08-30T08:58:53.608Z,11.67
2018-08-30T09:01:21.985Z,11.70
2018-08-30T09:03:50.193Z,12.20
2018-08-30T09:06:19.632Z,11.23
2018-08-30T09:08:47.897Z,12.57
2018-08-30T09:11:17.341Z,12.77
2018-08-30T09:13:45.627Z,13.27
2018-08-30T09:16:13.917Z,11.67
2018-08-30T09:18:42.218Z,13.10
2018-08-30T09:21:10.634Z,12.73
2018-08-30T09:23:38.997Z,13.43
2018-08-30T09:26:07.293Z,12.10
2018-08-30T09:28:50.171Z,13.37
2018-08-30T09:31:18.441Z,12.23
2018-08-30T09:33:47.838Z,13.10
2018-08-30T09:36:16.104Z,13.10
2018-08-30T09:38:44.417Z,14.77
2018-08-30T09:41:12.896Z,9.50
2018-08-30T09:43:41.236Z,7.27
2018-08-30T09:46:09.549Z,6.20
2018-08-30T09:48:37.849Z,6.50
2018-08-30T09:51:06.144Z,5.37
2018-08-30T09:53:34.449Z,5.40
2018-08-30T09:56:03.195Z,6.30
2018-08-30T09:58:31.489Z,5.40
2018-08-30T10:01:05.048Z,6.80
2018-08-30T10:03:33.304Z,6.17
2018-08-30T10:06:01.617Z,8.37
2018-08-30T10:08:29.921Z,6.70
2018-08-30T10:10:58.234Z,6.90
2018-08-30T10:13:26.498Z,7.00
2018-08-30T10:15:54.868Z,7.47
2018-08-30T10:18:23.316Z,6.03
2018-08-30T10:20:51.610Z,6.60
2018-08-30T10:23:19.864Z,6.27
2018-08-30T10:25:49.201Z,5.70
2018-08-30T10:28:17.493Z,5.00
2018-08-30T10:30:45.796Z,4.40
2018-08-30T10:33:14.145Z,3.90
2018-08-30T10:35:43.489Z,3.53
2018-08-30T10:38:12.765Z,3.27
2018-08-30T10:40:41.049Z,2.60
2018-08-30T10:43:09.335Z,2.33
2018-08-30T10:45:37.619Z,3.10
2018-08-30T10:48:05.993Z,2.73
2018-08-30T10:50:34.434Z,3.13
2018-08-30T10:53:02.715Z,2.23
2018-08-30T10:55:31.005Z,1.90
2018-08-30T10:57:59.483Z,1.83
2018-08-30T11:00:27.725Z,2.10
2018-08-30T11:02:56.025Z,2.47
2018-08-30T11:05:24.321Z,2.40
2018-08-30T11:07:52.701Z,1.93
2018-08-30T11:10:20.968Z,2.80
2018-08-30T11:12:49.356Z,2.90
2018-08-30T11:15:17.597Z,3.37
2018-08-30T11:17:45.896Z,3.67
2018-08-30T11:20:14.158Z,3.77
2018-08-30T11:22:42.449Z,4.10
2018-08-30T11:25:10.720Z,4.83
2018-08-30T11:27:39.205Z,5.30
2018-08-30T11:30:07.665Z,5.87
2018-08-30T11:32:35.963Z,6.00
2018-08-30T11:35:04.444Z,6.90
2018-08-30T11:37:32.847Z,6.73
2018-08-30T11:40:01.120Z,6.97
2018-08-30T11:42:29.412Z,7.80
2018-08-30T11:44:57.841Z,8.67
2018-08-30T11:47:26.285Z,8.50
2018-08-30T11:49:54.558Z,8.63
2018-08-30T11:52:22.937Z,8.87
2018-08-30T11:54:51.409Z,9.57
2018-08-30T11:57:20.122Z,9.80
2018-08-30T11:59:48.682Z,8.17
2018-08-30T12:02:16.960Z,10.03
2018-08-30T12:04:47.296Z,10.13
2018-08-30T12:07:15.577Z,8.33
2018-08-30T12:09:44.302Z,9.00
2018-08-30T12:12:12.873Z,8.20
2018-08-30T12:14:41.269Z,8.33
2018-08-30T12:17:09.533Z,9.97
2018-08-30T12:19:37.961Z,9.13
2018-08-30T12:22:06.261Z,8.50
2018-08-30T12:24:34.582Z,9.67
2018-08-30T12:27:03.039Z,8.70
2018-08-30T12:29:31.386Z,8.10
2018-08-30T12:31:59.686Z,8.30
2018-08-30T12:34:28.032Z,7.60
2018-08-30T12:36:58.369Z,7.87
2018-08-30T12:39:26.692Z,8.00
2018-08-30T12:41:54.994Z,8.20
2018-08-30T12:44:23.203Z,8.23
2018-08-30T12:46:51.518Z,7.83
2018-08-30T12:49:19.756Z,7.80
2018-08-30T12:51:48.159Z,6.77
2018-08-30T12:54:16.387Z,5.60
2018-08-30T12:56:44.714Z,7.10
2018-08-30T12:59:17.995Z,6.77
2018-08-30T13:01:47.040Z,7.20
2018-08-30T13:04:16.417Z,7.03
2018-08-30T13:06:44.703Z,6.90
2018-08-30T13:09:14.082Z,6.20
2018-08-30T13:11:42.348Z,6.07
2018-08-30T13:14:10.662Z,5.93
2018-08-30T13:16:38.957Z,4.90
2018-08-30T13:19:07.458Z,5.60
2018-08-30T13:21:35.499Z,6.30
2018-08-30T13:24:03.724Z,5.67
2018-08-30T13:26:32.041Z,5.43
2018-08-30T13:29:00.384Z,6.43
2018-08-30T13:31:28.884Z,5.67
2018-08-30T13:33:57.289Z,5.33
2018-08-30T13:36:25.385Z,5.40
2018-08-30T13:38:53.739Z,6.33
2018-08-30T13:41:22.353Z,6.37
2018-08-30T13:43:50.364Z,6.80
2018-08-30T13:46:18.488Z,6.90
2018-08-30T13:48:46.920Z,6.83
2018-08-30T13:51:15.260Z,7.17
2018-08-30T13:53:43.681Z,8.70
2018-08-30T13:56:12.153Z,7.73
2018-08-30T13:58:42.536Z,9.40
2018-08-30T14:01:11.961Z,9.77
2018-08-30T14:03:39.705Z,11.22
2018-08-30T14:06:09.187Z,9.93
2018-08-30T14:08:37.299Z,8.73
2018-08-30T14:11:06.903Z,10.43
2018-08-30T14:13:37.139Z,10.77
2018-08-30T14:16:05.112Z,9.67
2018-08-30T14:18:33.425Z,9.23
2018-08-30T14:21:01.661Z,10.00
2018-08-30T14:23:30.109Z,10.87
2018-08-30T14:25:58.451Z,10.73
2018-08-30T14:28:27.887Z,10.10
2018-08-30T14:30:56.161Z,10.43
2018-08-30T14:33:24.434Z,10.13
2018-08-30T14:35:53.980Z,10.20
2018-08-30T14:38:23.360Z,10.47
2018-08-30T14:40:52.918Z,11.07
2018-08-30T14:43:20.900Z,11.10
2018-08-30T14:45:49.256Z,11.20
2018-08-30T14:48:17.507Z,10.63
2018-08-30T14:50:46.789Z,10.13
2018-08-30T14:53:15.098Z,10.27
2018-08-30T14:55:43.361Z,10.30
2018-08-30T14:58:11.646Z,11.10
2018-08-30T15:00:42.038Z,10.23
2018-08-30T15:03:10.304Z,9.90
2018-08-30T15:05:40.748Z,9.30
2018-08-30T15:08:09.067Z,9.73
2018-08-30T15:10:37.448Z,8.83
2018-08-30T15:13:05.994Z,8.47
2018-08-30T15:15:34.354Z,7.90
2018-08-30T15:18:03.719Z,8.40
2018-08-30T15:20:32.022Z,7.93
2018-08-30T15:23:01.407Z,8.60
2018-08-30T15:25:29.669Z,6.40
2018-08-30T15:27:58.002Z,7.23
2018-08-30T15:30:26.270Z,5.90
2018-08-30T15:32:54.734Z,6.40
2018-08-30T15:35:23.092Z,5.83
2018-08-30T15:37:51.333Z,5.80
2018-08-30T15:40:20.621Z,5.63
2018-08-30T15:42:50.969Z,5.30
2018-08-30T15:45:19.285Z,5.13
2018-08-30T15:47:47.610Z,5.77
2018-08-30T15:50:15.873Z,4.70
2018-08-30T15:52:44.169Z,4.73
2018-08-30T15:55:12.457Z,4.73
2018-08-30T15:57:40.833Z,5.03
2018-08-30T16:00:09.310Z,5.40
2018-08-30T16:02:37.629Z,6.00
2018-08-30T16:05:06.076Z,5.43
2018-08-30T16:07:34.389Z,5.47
2018-08-30T16:10:02.668Z,3.90
2018-08-30T16:12:32.069Z,5.67
2018-08-30T16:15:00.354Z,6.00
2018-08-30T16:17:28.702Z,4.90
2018-08-30T16:19:56.997Z,4.70
2018-08-30T16:23:37.656Z,4.33
2018-08-30T16:26:06.041Z,4.10
2018-08-30T16:28:35.445Z,3.57
2018-08-30T16:31:03.757Z,4.93
2018-08-30T16:33:32.103Z,4.10
2018-08-30T16:36:01.112Z,5.57
2018-08-30T16:38:30.446Z,4.80
2018-08-30T16:40:59.817Z,4.27
2018-08-30T16:43:28.089Z,4.13
2018-08-30T16:45:56.638Z,5.60
2018-08-30T16:48:25.970Z,5.50
2018-08-30T16:50:54.310Z,6.40
2018-08-30T16:53:22.777Z,5.20
2018-08-30T16:55:50.940Z,4.50
2018-08-30T16:58:19.261Z,5.50
2018-08-30T17:00:47.614Z,6.40
2018-08-30T17:03:15.865Z,5.93
2018-08-30T17:05:44.165Z,6.70
2018-08-30T17:08:12.488Z,7.13
2018-08-30T17:10:41.805Z,5.80
2018-08-30T17:13:10.112Z,6.70
2018-08-30T17:15:42.037Z,6.77
2018-08-30T17:18:10.333Z,6.73
2018-08-30T17:20:46.219Z,6.43
2018-08-30T17:23:14.485Z,6.67
2018-08-30T17:25:43.506Z,7.40
2018-08-30T17:28:11.978Z,7.90
2018-08-30T17:30:40.780Z,6.97
2018-08-30T17:33:09.268Z,6.97
2018-08-30T17:35:37.536Z,6.60
2018-08-30T17:38:05.886Z,6.70
2018-08-30T17:40:35.166Z,6.37
2018-08-30T17:43:03.482Z,6.27
2018-08-30T17:45:32.895Z,5.23
2018-08-30T17:48:01.133Z,4.40
2018-08-30T17:50:29.462Z,4.93
2018-08-30T17:52:57.793Z,4.93
2018-08-30T17:55:26.143Z,4.20
2018-08-30T17:57:55.912Z,4.07
2018-08-30T18:00:24.265Z,3.10
2018-08-30T18:02:53.679Z,3.50
2018-08-30T18:05:21.973Z,3.87
2018-08-30T18:07:50.277Z,3.27
2018-08-30T18:10:18.595Z,2.60
2018-08-30T18:12:46.913Z,2.67
2018-08-30T18:15:16.073Z,3.20
2018-08-30T18:17:45.076Z,2.43
2018-08-30T18:20:13.360Z,2.90
2018-08-30T18:22:42.758Z,2.20
2018-08-30T18:25:11.240Z,3.00
2018-08-30T18:27:39.565Z,2.40
2018-08-30T18:30:09.007Z,3.97
2018-08-30T18:32:37.382Z,2.33
2018-08-30T18:35:07.125Z,2.80
2018-08-30T18:37:35.377Z,2.30
2018-08-30T18:40:03.806Z,3.40
2018-08-30T18:42:32.936Z,2.10
2018-08-30T18:45:01.271Z,3.07
2018-08-30T18:47:29.545Z,3.17
2018-08-30T18:49:57.901Z,1.87
2018-08-30T18:52:28.195Z,2.57
2018-08-30T18:54:58.538Z,2.30
2018-08-30T18:57:26.813Z,2.13
2018-08-30T18:59:55.175Z,2.23
2018-08-30T19:02:25.506Z,2.07
2018-08-30T19:04:53.816Z,1.90
2018-08-30T19:07:22.108Z,2.37
2018-08-30T19:09:52.578Z,2.43
2018-08-30T19:12:20.877Z,2.67
2018-08-30T19:14:49.156Z,2.50
2018-08-30T19:17:23.813Z,2.47
2018-08-30T19:19:52.217Z,2.10
2018-08-30T19:22:20.540Z,2.00
2018-08-30T19:24:54.141Z,2.73
2018-08-30T19:27:22.482Z,2.40
2018-08-30T19:29:56.153Z,3.30
2018-08-30T19:32:24.430Z,2.10
2018-08-30T19:34:52.693Z,2.83
2018-08-30T19:37:22.002Z,2.43
2018-08-30T19:39:50.271Z,3.77
2018-08-30T19:42:18.549Z,2.00
2018-08-30T19:44:46.827Z,2.10
2018-08-30T19:47:15.241Z,2.00
2018-08-30T19:49:44.544Z,2.40
2018-08-30T19:52:13.938Z,2.47
2018-08-30T19:54:42.223Z,3.03
2018-08-30T19:57:10.509Z,2.53
2018-08-30T19:59:38.818Z,2.07
2018-08-30T20:02:07.130Z,2.43
2018-08-30T20:04:37.509Z,3.20
2018-08-30T20:07:05.986Z,1.70
2018-08-30T20:09:34.278Z,2.57
2018-08-30T20:12:02.645Z,2.07
2018-08-30T20:14:30.942Z,2.90
2018-08-30T20:16:59.313Z,2.17
2018-08-30T20:19:28.678Z,2.07
2018-08-30T20:21:58.196Z,2.47
2018-08-30T20:24:28.793Z,2.10
2018-08-30T20:26:57.094Z,2.27
2018-08-30T20:29:25.430Z,2.77
2018-08-30T20:31:53.715Z,2.70
2018-08-30T20:34:22.025Z,2.80
2018-08-30T20:36:50.409Z,2.93
2018-08-30T20:39:18.759Z,2.20
2018-08-30T20:41:52.037Z,2.00
2018-08-30T20:44:20.353Z,2.37
2018-08-30T20:46:48.765Z,2.40
2018-08-30T20:49:16.973Z,2.73
2018-08-30T20:51:46.309Z,2.90
2018-08-30T20:54:14.686Z,1.80
2018-08-30T20:56:43.067Z,1.53
2018-08-30T20:59:11.415Z,3.37
2018-08-30T21:01:39.697Z,2.20
2018-08-30T21:04:08.022Z,2.30
2018-08-30T21:06:36.361Z,2.80
2018-08-30T21:09:06.193Z,2.47
2018-08-30T21:11:35.590Z,2.53
2018-08-30T21:14:05.178Z,2.23
2018-08-30T21:16:33.973Z,1.73
2018-08-30T21:19:02.273Z,1.93
2018-08-30T21:21:30.674Z,2.10
2018-08-30T21:23:58.973Z,2.40
2018-08-30T21:26:28.335Z,1.73
2018-08-30T21:28:56.623Z,4.43
2018-08-30T21:31:27.073Z,3.63
2018-08-30T21:33:55.389Z,1.90
2018-08-30T21:36:23.732Z,2.77
2018-08-30T21:38:52.062Z,2.80
2018-08-30T21:41:20.367Z,2.00
2018-08-30T21:43:48.633Z,2.23
2018-08-30T21:46:17.252Z,2.23
2018-08-30T21:48:45.644Z,2.63
2018-08-30T21:51:15.017Z,2.00
2018-08-30T21:53:43.318Z,2.67
2018-08-30T21:56:12.672Z,2.50
2018-08-30T21:58:42.032Z,2.87
2018-08-30T22:01:10.369Z,2.47
2018-08-30T22:03:39.720Z,2.80
2018-08-30T22:06:08.049Z,3.23
2018-08-30T22:08:37.409Z,2.50
2018-08-30T22:11:05.806Z,1.90
2018-08-30T22:13:34.136Z,2.97
2018-08-30T22:16:02.461Z,2.00
2018-08-30T22:18:30.753Z,2.40
2018-08-30T22:20:59.081Z,2.03
2018-08-30T22:23:27.497Z,2.20
2018-08-30T22:25:55.817Z,2.30
2018-08-30T22:28:24.128Z,2.70
2018-08-30T22:30:52.489Z,1.97
2018-08-30T22:33:20.789Z,1.87
2018-08-30T22:35:49.111Z,2.17
2018-08-30T22:38:17.404Z,2.10
2018-08-30T22:40:45.736Z,1.83
2018-08-30T22:43:13.965Z,2.20
2018-08-30T22:45:43.265Z,2.30
2018-08-30T22:48:11.576Z,2.43
2018-08-30T22:50:39.877Z,2.70
2018-08-30T22:53:09.217Z,2.07
2018-08-30T22:55:37.485Z,2.30
2018-08-30T22:58:05.775Z,2.87
2018-08-30T23:00:34.045Z,2.50
2018-08-30T23:03:02.427Z,2.33
2018-08-30T23:05:31.748Z,2.23
2018-08-30T23:08:00.025Z,2.57
2018-08-30T23:10:28.313Z,2.30
2018-08-30T23:12:56.645Z,2.50
2018-08-30T23:15:24.929Z,2.33
2018-08-30T23:17:53.209Z,2.10
2018-08-30T23:20:21.485Z,2.17
2018-08-30T23:22:49.820Z,1.90
2018-08-30T23:25:18.123Z,1.97
2018-08-30T23:27:46.413Z,2.27
2018-08-30T23:30:14.783Z,2.10
2018-08-30T23:32:43.061Z,2.67
2018-08-30T23:35:11.401Z,2.17
2018-08-30T23:37:39.681Z,3.30
2018-08-30T23:40:09.608Z,1.90
2018-08-30T23:42:37.928Z,2.63
2018-08-30T23:45:07.494Z,2.80
2018-08-30T23:47:36.825Z,2.60
2018-08-30T23:50:05.433Z,2.30
2018-08-30T23:52:34.880Z,2.50
2018-08-30T23:55:03.177Z,3.27
2018-08-30T23:57:32.532Z,2.40
